Decoded Metar for KSAT (SAN ANTONIO in TX, USA) (IATA:SAT) | Meteo·Mobile Aviation Weather
aviador You're here:

KSAT Decoded Metar

SAN ANTONIO in TX, USA
Report Time2019-05-22 05:51:00
UTC Time2019-05-22 06:35:32
Flight Rules mvfr MVFR
Wind110° at 06 kt
W.Decomp.*RWY 12: 5.7 kt HW 1.9 kt LCW
RWY 04: 2.8 kt HW 5.3 kt RCW
Visibility9999 m
Phenomena:N/A
Clouds:Broken 013 Hf
Overcast 021 Hf
Expected CloudBase > 2,800 ft AGL from Temp-Dew spread
Ceiling1,300 ft
Temp24°C (ISA +11)
Dew Point17°C (65% RH)
QNH1007 hPa
Density Alt2,487 ft
Elevation797 ft
Report Wrong Elevation
Raw Report
KSAT 220551Z 11006KT 10SM BKN013 OVC021 24/17 A2973 RMK AO2 SLP048
T02440167 10294 20228 403220206 50010=

Extra information for KSAT:More info

Metar Taf Metar & Taf Last 4 Metars F.Rules Stats Wind Profile Meteogram Temp Stats Airport Information Weather charts Add Link Nearby VenuesMetar ALERT Operation Metar Decoded Social comments

AIRNAV info for KSAT